Terminal Aerodrome Forecast
Issued by NWS

Home | Current Version | Previous Version | Text Only | Print | Product List | Glossary Off
Versions: 1 2 3 4 5 6 7 8 9 10 11 12 13 14 15 16 17 18 19 20

000
FTUS43 KBIS 191129
TAFJMS
TAF
KJMS 191129Z 1912/2012 01012KT P6SM OVC110
     FM192000 01014KT P6SM OVC070
     FM192300 01013KT P6SM VCSH OVC040
     FM200100 01012KT 2SM -SN OVC025
     FM200300 01012KT 1SM -SN OVC012=

USA.gov is the U.S. government's official web portal to all federal, state and local government web resources and services.